Etusivu
METAR-TAF:

METAR-TAF

Lentoasemat :

Port Isabel-Cameron County Airport

Port Isabel, Texas, Yhdysvallat

Leveyspiiri: 26-09-33N, Pituuspiiri: 097-20-15W, korkeus merenpinnasta: 5 m

Tämänhetkinen sää

Tämä raportti tehtiin 20 minuuttia sitten, kello 18.53 UTC
Tuuli 20 kn etelästä/kaakosta
Lämpötila 25°C
Kosteus 69%
Ilmanpaine 1017 hPa
Näkyvyys: 16.1 km
Muutamia pilviä 2200 ft:n korkeudessa
Hajonneita pilviä 2900 ft:n korkeudessa
heikkoa sadetta

METAR: KPIL 251853Z AUTO 15020KT 10SM -RA FEW022 BKN029 25/19 A3002 RMK AO2 PK WND 14028/1802 RAB30 SLP165 P0000 T02500194 TSNO

Aika: 13:13 (19:13 UTC)


TAF: puuttuu

Säähavainnot ja -ennusteet yli 4000 lentoasemalta (METAR- ja TAF-raportit).

Käytössä olevat sääasemat on merkitty karttaan keltaisilla ja punaisilla pisteillä.

Aseta hiiri pisteen päälle nähdäksesi sääaseman nimen.

Klikkaa sitten nähdäksesi säähavainnot ja -ennusteet.

Kartan vaihtaminen: klikkaa mustalla rastilla varustettuja vihreitä pisteitä, niin voit zoomata sisään; viivalla varustettua vihreää pistettä, niin voit zoomata ulos tai vihreitä nuolia, niin pääset viereisille kartoille.


METAR-TAF: